• Join FlightAware (Why Join?)
  • Login
  • US Flag 
11:28PM EDT


 

Airport Tracker/Info


-or-


 

Live Flight TrackerFlight Track Log ✈ SAS484 ✈ 12-Jun-2013 ✈ ENGM / OSL - ESSA / ARN

Flight Track Log - Related Links

Times and Time Zones

All times are in EDT time to prevent confusion due to time zone crossing. See the SAS484 flight status page for this flight to view local times or setup timezone preferences in your user account.

Time Position Orientation Groundspeed Altitude Reporting Facility
EDT Latitude Longitude Course Direction KTS MPH feet Rate Location/Type
03:38AM 60.1150 11.1210 132° Southeast 211 243 4,000  Level FlightAware
03:38AM 60.1050 11.1440 131° Southeast 240 276 4,300 1,860 Climbing FlightAware
03:38AM 60.0830 11.1950 131° Southeast 265 305 5,400 2,520 Climbing FlightAware
03:38AM 60.0780 11.2220 110° East 270 311 6,000 3,420 Climbing FlightAware
03:39AM 60.0810 11.2960 85° East 279 321 7,700 3,300 Climbing FlightAware
03:39AM 60.0830 11.3150 78° East 282 325 8,200 3,300 Climbing FlightAware
03:40AM 60.0900 11.3990 80° East 289 333 9,900 2,640 Climbing FlightAware
03:40AM 60.0990 11.5160 81° East 328 377 11,300 2,580 Climbing FlightAware
03:41AM 60.1090 11.6360 80° East 333 383 13,400 2,880 Climbing FlightAware
03:42AM 60.1210 11.7820 81° East 349 402 15,500 2,520 Climbing FlightAware
03:42AM 60.1320 11.9230 81° East 368 423 17,200 2,460 Climbing FlightAware
03:43AM 60.1430 12.0730 82° East 382 440 19,100 2,700 Climbing FlightAware
03:44AM 60.1540 12.2170 81° East 394 453 21,000 2,700 Climbing FlightAware
03:45AM 60.1660 12.3790 81° East 409 471 22,900 2,640 Climbing FlightAware
03:45AM 60.1750 12.5310 83° East 423 487 24,700 2,640 Climbing FlightAware
03:46AM 60.1670 12.7080 95° East 434 499 26,600 2,400 Climbing FlightAware
03:47AM 60.1560 12.8830 97° East 444 511 28,300 2,400 Climbing FlightAware
03:47AM 60.1450 13.0460 98° East 443 510 30,000 2,520 Climbing FlightAware
03:48AM 60.1340 13.2080 98° East 442 509 31,700 2,220 Climbing FlightAware
03:49AM 60.1230 13.3720 98° East 449 517 33,000 900 Climbing FlightAware
03:49AM 60.1100 13.5680 97° East 472 543 33,000  Level FlightAware
03:50AM 60.0970 13.7580 98° East 474 545 33,000  Level FlightAware
03:51AM 60.0850 13.9220 98° East 475 547 33,000  Level FlightAware
03:52AM 60.0710 14.1050 99° East 476 548 33,000  Level FlightAware
03:52AM 60.0570 14.2920 98° East 476 548 33,000  Level FlightAware
03:53AM 60.0430 14.4790 98° East 476 548 33,000  Level FlightAware
03:54AM 60.0290 14.6550 99° East 477 549 33,000 -300 Level FlightAware
03:54AM 60.0150 14.8380 99° East 479 551 32,600 -840 Descending FlightAware
03:55AM 60.0000 15.0200 99° East 473 544 31,900 -1,260 Descending FlightAware
03:56AM 59.9860 15.1970 99° East 457 526 30,900 -1,740 Descending FlightAware
03:56AM 59.9710 15.3680 100° East 446 513 29,500 -2,100 Descending FlightAware
03:57AM 59.9570 15.5390 99° East 437 503 28,000 -2,160 Descending FlightAware
03:58AM 59.9430 15.6960 100° East 429 494 26,600 -2,100 Descending FlightAware
03:59AM 59.9280 15.8670 100° East 419 482 25,100 -2,040 Descending FlightAware
03:59AM 59.9150 16.0210 99° East 411 473 23,700 -1,980 Descending FlightAware
04:00AM 59.9030 16.1500 100° East 403 464 22,600 -1,800 Descending FlightAware
04:01AM 59.8870 16.3210 100° East 391 450 21,100 -1,980 Descending FlightAware
04:01AM 59.8730 16.4830 100° East 380 437 19,600 -1,980 Descending FlightAware
04:02AM 59.8600 16.6180 101° East 371 427 18,400 -1,800 Descending FlightAware
04:03AM 59.8460 16.7650 101° East 363 418 17,100 -1,860 Descending FlightAware
04:03AM 59.8340 16.8940 100° East 358 412 15,800 -1,920 Descending FlightAware
04:04AM 59.8270 17.0040 97° East 349 402 14,800 -1,560 Descending FlightAware
04:05AM 59.8320 17.1180 85° East 339 390 13,800 -1,500 Descending FlightAware
04:06AM 59.8430 17.3200 84° East 322 371 12,200 -1,500 Descending FlightAware
04:06AM 59.8500 17.4490 84° East 305 351 11,300 -1,500 Descending FlightAware
04:07AM 59.8490 17.5600 91° East 311 358 10,100 -1,620 Descending FlightAware
04:08AM 59.8430 17.6310 100° East 309 356 9,400 -1,500 Descending FlightAware
04:08AM 59.8360 17.7210 99° East 296 341 8,700 -1,500 Descending FlightAware
04:09AM 59.8300 17.7970 99° East 293 337 8,000 -1,440 Descending FlightAware
04:09AM 59.8250 17.8700 98° East 288 331 7,400 -1,200 Descending FlightAware
04:09AM 59.8230 17.8970 98° East 285 328 7,200 -1,320 Descending FlightAware
04:10AM 59.8170 17.9410 105° East 281 323 6,800 -1,980 Descending FlightAware
04:10AM 59.7960 18.0380 113° Southeast 293 337 5,400 -2,100 Descending FlightAware
04:11AM 59.7650 18.1670 115° Southeast 299 344 3,600 -1,500 Descending FlightAware
04:12AM 59.7450 18.2290 123° Southeast 276 318 3,400 -600 Descending FlightAware
04:12AM 59.7320 18.2580 132° Southeast 263 303 3,200 -660 Descending FlightAware
04:12AM 59.7200 18.2690 155° Southeast 253 291 3,100 -480 Descending FlightAware
04:12AM 59.6930 18.2460 203° Southwest 220 253 2,900 -480 Descending FlightAware
04:13AM 59.6890 18.2230 251° West 212 244 2,800 -1,080 Descending FlightAware
04:13AM 59.6880 18.1660 268° West 185 213 2,100 -1,320 Descending FlightAware
04:14AM 59.6820 18.1240 254° West 167 192 1,500 -1,020 Descending FlightAware
04:14AM 59.6780 18.0880 258° West 141 162 1,200 -660 Descending FlightAware
04:14AM 59.6760 18.0750 253° West 132 152 1,100 -780 Descending FlightAware
04:15AM 59.6720 18.0420 257° West 125 144 700 -780 Descending FlightAware
04:15AM 59.6680 18.0110 256° West 124 143 400 -600 Descending FlightAware
04:16AM 59.6660 17.9940 257° West 122 140 300 -240 Descending FlightAware
04:16AM 59.6610 17.9620 253° West 123 142 200 -180 Descending FlightAware
04:19AM 59.6519 17.9186 248° West  Level Estimated
04:20AM 59.6519 17.9186 North  Level Estimated
04:21AM 59.6519 17.9186 North  Level Estimated
04:22AM 59.6519 17.9186 North  Level Estimated